Huvudsida
METAR-TAF:

METAR-TAF

Flygplatser :

Lissabon, Portugal

Lissabon-Portelas flygplats

latitud: 38-46N, longitud: 009-08W, höjd: 114 m

Aktuellt väderrapport

Denna rapport gjordes för 16 timmar och 15 minuter sedan, klockan 15:00 UTC
Vind 6 kt från ost
Temperatur 19°C
Fuktighet 46%
Tryck 1017 hPa
Sikt 10 km eller mer
Inga moln under 1 500 m eller inga cumulonimbus

METAR: LPPT 201500Z 10006KT CAVOK 19/07 Q1017

Tid: 07:15 (07:15 UTC)

Väderprognos

Denna rapport gjordes för 20 timmar och 15 minuter sedan, klockan 11:00 UTC
Prognos gäller från 20 kl. 12 UTC till 21 kl. 18 UTC
Vind 8 kt från nordost
Sikt 10 km eller mer
Inga moln under 1 500 m eller inga cumulonimbus
Blir
från 20 kl. 15 UTC till 20 kl. 17 UTC
Vind 12 kt från nord
Blir
från 21 kl. 01 UTC till 21 kl. 04 UTC
Vind 10 kt från nordost
Blir
från 21 kl. 14 UTC till 21 kl. 16 UTC
Vind 10 kt från nord

TAF: LPPT 201100Z 2012/2118 04008KT CAVOK BECMG 2015/2017 35012KT BECMG 2101/2104 04010KT BECMG 2114/2116 35010KT

Aktuella väderrapporter och prognoser från 4000 flygplatser (METAR- och TAF-rapporter).

De tillgängliga stationerna syns som gula och röda prickar på kartan.

För musen över prickarna för att se namnen på stationerna.

Klicka sedan för att få väderrapporter och prognoser.

För att ändra kartan: Klicka på de gröna knapparna med ett svart kors på för att zooma in; den gröna knappen med ett streck på för att zooma ut; eller på de gröna pilarna för angränsande kartor.


METAR-TAF: